createdAt,value
2022-10-23T00:01:40.875Z,33.35
2022-10-23T00:04:19.406Z,39.85
2022-10-23T00:06:47.216Z,40.55
2022-10-23T00:09:17.739Z,34.95
2022-10-23T00:11:47.832Z,31.70
2022-10-23T00:14:16.072Z,36.22
2022-10-23T00:16:42.914Z,36.58
2022-10-23T00:19:09.927Z,33.03
2022-10-23T00:21:37.208Z,37.10
2022-10-23T00:24:04.259Z,34.28
2022-10-23T00:26:31.087Z,32.40
2022-10-23T00:28:58.171Z,33.17
2022-10-23T00:31:25.869Z,33.83
2022-10-23T00:33:53.645Z,32.55
2022-10-23T00:36:21.789Z,35.97
2022-10-23T00:38:49.763Z,38.78
2022-10-23T00:41:21.896Z,32.53
2022-10-23T00:44:11.360Z,34.38
2022-10-23T00:46:39.480Z,37.58
2022-10-23T00:49:07.050Z,34.38
2022-10-23T00:51:39.183Z,31.80
2022-10-23T00:54:24.794Z,31.77
2022-10-23T00:56:54.678Z,34.88
2022-10-23T00:59:21.524Z,39.47
2022-10-23T01:01:48.995Z,33.47
2022-10-23T01:04:16.669Z,38.28
2022-10-23T01:07:17.513Z,40.67
2022-10-23T01:09:53.928Z,38.15
2022-10-23T01:13:00.588Z,37.55
2022-10-23T01:15:35.463Z,36.47
2022-10-23T01:18:26.003Z,35.45
2022-10-23T01:21:08.550Z,36.60
2022-10-23T01:23:46.159Z,38.53
2022-10-23T01:26:39.156Z,36.05
2022-10-23T01:29:23.625Z,38.20
2022-10-23T01:32:14.934Z,40.63
2022-10-23T01:35:07.595Z,41.42
2022-10-23T01:37:45.610Z,37.42
2022-10-23T01:40:21.436Z,33.85
2022-10-23T01:42:53.929Z,36.50
2022-10-23T01:45:40.069Z,38.25
2022-10-23T01:48:21.559Z,40.20
2022-10-23T01:50:50.261Z,40.55
2022-10-23T01:53:19.055Z,42.55
2022-10-23T01:55:48.673Z,41.83
2022-10-23T01:58:16.549Z,37.10
2022-10-23T02:00:46.011Z,40.45
2022-10-23T02:03:15.799Z,39.08
2022-10-23T02:05:44.161Z,39.28
2022-10-23T02:08:11.053Z,43.25
2022-10-23T02:10:58.347Z,39.28
2022-10-23T02:13:56.949Z,38.92
2022-10-23T02:16:29.707Z,46.10
2022-10-23T02:18:56.430Z,40.22
2022-10-23T02:21:38.671Z,42.97
2022-10-23T02:24:13.783Z,43.92
2022-10-23T02:26:52.624Z,46.47
2022-10-23T02:29:26.993Z,44.72
2022-10-23T02:31:53.806Z,42.72
2022-10-23T02:34:20.612Z,41.45
2022-10-23T02:36:47.551Z,44.53
2022-10-23T02:39:14.367Z,42.42
2022-10-23T02:42:04.203Z,42.95
2022-10-23T02:44:46.641Z,40.65
2022-10-23T02:47:19.799Z,45.72
2022-10-23T02:50:27.919Z,43.00
2022-10-23T02:53:16.112Z,41.95
2022-10-23T02:56:00.846Z,43.95
2022-10-23T02:58:40.654Z,41.35
2022-10-23T03:01:21.440Z,41.35
2022-10-23T03:03:53.778Z,44.60
2022-10-23T03:06:20.971Z,41.55
2022-10-23T03:09:04.174Z,40.25
2022-10-23T03:11:30.958Z,43.45
2022-10-23T03:13:57.704Z,48.40
2022-10-23T03:16:24.822Z,49.72
2022-10-23T03:18:52.073Z,41.38
2022-10-23T03:21:19.321Z,43.10
2022-10-23T03:23:46.206Z,41.08
2022-10-23T03:26:12.945Z,36.83
2022-10-23T03:28:39.714Z,36.33
2022-10-23T03:31:06.481Z,36.53
2022-10-23T03:33:33.643Z,36.35
2022-10-23T03:36:00.377Z,38.53
2022-10-23T03:38:27.177Z,38.55
2022-10-23T03:40:53.989Z,38.42
2022-10-23T03:43:20.762Z,40.10
2022-10-23T03:45:47.548Z,35.55
2022-10-23T03:48:14.847Z,36.47
2022-10-23T03:50:41.630Z,34.50
2022-10-23T03:53:08.434Z,38.72
2022-10-23T03:55:35.260Z,41.03
2022-10-23T03:58:02.050Z,33.47
2022-10-23T04:00:28.955Z,37.03
2022-10-23T04:02:55.745Z,34.28
2022-10-23T04:05:22.558Z,33.03
2022-10-23T04:07:49.617Z,31.58
2022-10-23T04:10:16.622Z,32.05
2022-10-23T04:12:43.479Z,31.02
2022-10-23T04:15:10.703Z,32.05
2022-10-23T04:17:37.460Z,28.08
2022-10-23T04:20:04.423Z,30.40
2022-10-23T04:22:31.299Z,33.03
2022-10-23T04:24:58.053Z,31.58
2022-10-23T04:27:24.831Z,32.03
2022-10-23T04:29:54.243Z,29.42
2022-10-23T04:32:23.629Z,29.50
2022-10-23T04:34:50.382Z,26.83
2022-10-23T04:37:17.568Z,30.38
2022-10-23T04:39:44.318Z,28.52
2022-10-23T04:42:11.106Z,24.90
2022-10-23T04:44:37.867Z,29.38
2022-10-23T04:47:04.762Z,25.77
2022-10-23T04:49:31.501Z,29.00
2022-10-23T04:51:58.368Z,28.00
2022-10-23T04:54:25.174Z,24.48
2022-10-23T04:56:51.926Z,27.88
2022-10-23T04:59:18.779Z,25.65
2022-10-23T05:01:45.661Z,25.63
2022-10-23T05:04:13.958Z,25.27
2022-10-23T05:06:40.779Z,23.75
2022-10-23T05:09:07.568Z,25.35
2022-10-23T05:11:34.347Z,26.65
2022-10-23T05:14:01.108Z,25.13
2022-10-23T05:17:08.376Z,23.70
2022-10-23T05:19:41.293Z,23.73
2022-10-23T05:22:09.050Z,22.80
2022-10-23T05:24:35.785Z,24.23
2022-10-23T05:27:02.766Z,21.25
2022-10-23T05:29:29.559Z,23.73
2022-10-23T05:32:01.461Z,20.95
2022-10-23T05:34:31.375Z,22.33
2022-10-23T05:36:58.238Z,22.80
2022-10-23T05:39:25.155Z,23.80
2022-10-23T05:41:52.397Z,24.52
2022-10-23T05:44:19.156Z,21.30
2022-10-23T05:46:45.946Z,23.77
2022-10-23T05:49:12.908Z,22.20
2022-10-23T05:51:40.792Z,22.98
2022-10-23T05:54:08.371Z,23.13
2022-10-23T05:56:36.797Z,20.90
2022-10-23T05:59:03.911Z,22.45
2022-10-23T06:01:30.882Z,22.35
2022-10-23T06:03:59.700Z,24.65
2022-10-23T06:06:30.358Z,23.13
2022-10-23T06:08:57.601Z,26.55
2022-10-23T06:11:24.449Z,24.98
2022-10-23T06:13:51.474Z,25.73
2022-10-23T06:16:25.504Z,24.73
2022-10-23T06:18:52.484Z,27.42
2022-10-23T06:21:20.025Z,25.92
2022-10-23T06:23:47.105Z,24.80
2022-10-23T06:26:15.699Z,23.90
2022-10-23T06:28:42.788Z,24.85
2022-10-23T06:31:15.049Z,28.98
2022-10-23T06:33:42.439Z,22.38
2022-10-23T06:36:10.739Z,25.65
2022-10-23T06:38:40.387Z,25.63
2022-10-23T06:41:13.906Z,22.35
2022-10-23T06:43:41.166Z,24.70
2022-10-23T06:46:07.964Z,22.77
2022-10-23T06:48:34.690Z,21.48
2022-10-23T06:51:06.624Z,25.25
2022-10-23T06:53:34.029Z,23.17
2022-10-23T06:56:01.247Z,26.70
2022-10-23T06:58:28.475Z,29.42
2022-10-23T07:00:55.465Z,28.02
2022-10-23T07:03:22.423Z,25.50
2022-10-23T07:05:49.295Z,25.92
2022-10-23T07:08:16.294Z,30.42
2022-10-23T07:10:43.771Z,30.20
2022-10-23T07:13:11.789Z,25.95
2022-10-23T07:15:39.776Z,29.95
2022-10-23T07:18:06.839Z,33.08
2022-10-23T07:20:33.958Z,30.92
2022-10-23T07:23:01.349Z,33.75
2022-10-23T07:25:28.084Z,31.40
2022-10-23T07:27:57.655Z,33.22
2022-10-23T07:30:24.494Z,32.78
2022-10-23T07:32:51.312Z,34.45
2022-10-23T07:35:18.505Z,33.85
2022-10-23T07:37:45.828Z,33.55
2022-10-23T07:40:12.895Z,32.35
2022-10-23T07:42:39.838Z,36.13
2022-10-23T07:45:08.754Z,34.22
2022-10-23T07:47:35.627Z,41.63
2022-10-23T07:50:02.488Z,33.25
2022-10-23T07:52:32.081Z,34.95
2022-10-23T07:55:01.985Z,34.85
2022-10-23T07:57:28.878Z,32.78
2022-10-23T07:59:55.697Z,35.10
2022-10-23T08:02:22.589Z,37.05
2022-10-23T08:04:50.375Z,33.63
2022-10-23T08:07:17.371Z,35.45
2022-10-23T08:09:44.132Z,37.42
2022-10-23T08:12:11.042Z,38.90
2022-10-23T08:14:37.832Z,37.05
2022-10-23T08:17:05.351Z,32.17
2022-10-23T08:19:32.634Z,31.27
2022-10-23T08:21:59.411Z,39.97
2022-10-23T08:24:26.175Z,36.05
2022-10-23T08:26:53.039Z,37.85
2022-10-23T08:29:19.852Z,38.90
2022-10-23T08:31:46.877Z,35.13
2022-10-23T08:34:15.320Z,35.10
2022-10-23T08:36:42.189Z,34.67
2022-10-23T08:39:09.516Z,32.65
2022-10-23T08:41:42.879Z,36.05
2022-10-23T08:44:32.436Z,35.28
2022-10-23T08:47:05.386Z,34.97
2022-10-23T08:49:53.959Z,32.78
2022-10-23T08:52:59.084Z,37.33
2022-10-23T08:55:36.841Z,34.30
2022-10-23T08:58:15.375Z,30.42
2022-10-23T09:00:43.704Z,33.03
2022-10-23T09:03:13.010Z,28.15
2022-10-23T09:06:17.062Z,29.75
2022-10-23T09:08:58.338Z,32.45
2022-10-23T09:11:33.309Z,29.33
2022-10-23T09:14:05.750Z,29.73
2022-10-23T09:16:41.482Z,31.58
2022-10-23T09:19:18.321Z,30.27
2022-10-23T09:21:49.926Z,32.08
2022-10-23T09:24:19.118Z,30.10
2022-10-23T09:26:49.620Z,32.97
2022-10-23T09:29:35.974Z,28.05
2022-10-23T09:34:34.159Z,30.45
2022-10-23T09:37:03.999Z,34.35
2022-10-23T09:39:33.579Z,30.52
2022-10-23T09:42:04.510Z,29.98
2022-10-23T09:44:33.701Z,29.95
2022-10-23T09:47:06.257Z,28.63
2022-10-23T09:49:34.292Z,30.58
2022-10-23T09:52:10.318Z,25.23
2022-10-23T09:54:45.586Z,24.50
2022-10-23T09:57:24.434Z,26.02
2022-10-23T09:59:57.008Z,26.08
2022-10-23T10:02:30.364Z,28.10
2022-10-23T10:04:57.934Z,27.73
2022-10-23T10:07:30.217Z,29.73
2022-10-23T10:09:59.116Z,27.48
2022-10-23T10:12:40.756Z,27.75
2022-10-23T10:19:10.828Z,21.45
2022-10-23T10:21:56.927Z,22.80
2022-10-23T10:24:51.205Z,25.33
2022-10-23T10:27:20.951Z,24.33
2022-10-23T10:29:50.586Z,21.27
2022-10-23T10:32:40.592Z,22.50
2022-10-23T10:35:20.682Z,22.15
2022-10-23T10:37:50.616Z,21.40
2022-10-23T10:40:27.614Z,21.42
2022-10-23T10:43:09.569Z,20.15
2022-10-23T10:45:47.086Z,18.27
2022-10-23T10:48:38.867Z,18.48
2022-10-23T10:51:29.466Z,19.10
2022-10-23T10:54:02.248Z,16.25
2022-10-23T10:56:33.527Z,18.80
2022-10-23T10:59:05.010Z,16.17
2022-10-23T11:01:45.223Z,19.58
2022-10-23T11:04:22.520Z,24.08
2022-10-23T11:06:54.203Z,15.15
2022-10-23T11:09:24.397Z,13.48
2022-10-23T11:11:51.440Z,14.18
2022-10-23T11:14:21.005Z,14.10
2022-10-23T11:16:53.152Z,13.88
2022-10-23T11:19:36.215Z,10.90
2022-10-23T11:22:12.436Z,14.50
2022-10-23T11:24:58.313Z,14.43
2022-10-23T11:27:37.358Z,11.45
2022-10-23T11:30:26.263Z,9.95
2022-10-23T11:33:02.642Z,12.60
2022-10-23T11:35:32.555Z,10.50
2022-10-23T11:38:17.799Z,12.98
2022-10-23T11:40:48.148Z,12.85
2022-10-23T11:43:26.915Z,10.00
2022-10-23T11:45:53.754Z,10.50
2022-10-23T11:48:22.426Z,11.23
2022-10-23T11:50:50.699Z,9.38
2022-10-23T11:53:46.776Z,10.30
2022-10-23T11:56:14.570Z,9.75
2022-10-23T11:58:50.222Z,7.90
2022-10-23T12:01:44.025Z,7.40
2022-10-23T12:04:13.869Z,8.23
2022-10-23T12:06:45.888Z,14.23
2022-10-23T12:09:24.771Z,7.82
2022-10-23T12:12:09.797Z,5.40
2022-10-23T12:14:38.362Z,9.77
2022-10-23T12:17:23.360Z,7.20
2022-10-23T12:19:55.447Z,6.40
2022-10-23T12:22:26.809Z,7.47
2022-10-23T12:25:17.193Z,6.13
2022-10-23T12:28:03.588Z,6.30
2022-10-23T12:30:45.881Z,5.38
2022-10-23T12:33:46.698Z,4.40
2022-10-23T12:36:16.204Z,4.30
2022-10-23T12:38:46.015Z,4.85
2022-10-23T12:41:19.193Z,5.72
2022-10-23T12:43:55.892Z,5.32
2022-10-23T12:46:29.083Z,5.85
2022-10-23T12:48:59.409Z,7.45
2022-10-23T12:51:32.305Z,7.40
2022-10-23T12:53:59.424Z,8.65
2022-10-23T12:56:29.400Z,5.70
2022-10-23T12:59:02.462Z,5.45
2022-10-23T13:01:32.489Z,6.25
2022-10-23T13:04:13.248Z,6.35
2022-10-23T13:06:40.616Z,3.75
2022-10-23T13:09:22.233Z,5.68
2022-10-23T13:11:50.536Z,5.22
2022-10-23T13:14:43.713Z,6.45
2022-10-23T13:17:12.348Z,4.70
2022-10-23T13:19:39.287Z,4.75
2022-10-23T13:22:18.952Z,3.75
2022-10-23T13:24:45.896Z,4.47
2022-10-23T13:27:31.840Z,3.92
2022-10-23T13:29:58.672Z,5.85
2022-10-23T13:32:29.594Z,4.07
2022-10-23T13:35:10.312Z,5.00
2022-10-23T13:37:46.055Z,4.18
2022-10-23T13:40:27.883Z,4.07
2022-10-23T13:42:56.237Z,3.95
2022-10-23T13:45:25.481Z,4.13
2022-10-23T13:47:53.164Z,5.70
2022-10-23T13:50:20.262Z,4.15
2022-10-23T13:52:47.091Z,4.57
2022-10-23T13:55:23.858Z,5.35
2022-10-23T13:57:50.679Z,5.10
2022-10-23T14:00:18.502Z,7.63
2022-10-23T14:02:45.510Z,4.80
2022-10-23T14:05:12.404Z,4.70
2022-10-23T14:07:39.256Z,6.72
2022-10-23T14:10:06.661Z,5.88
2022-10-23T14:12:43.158Z,8.45
2022-10-23T14:15:11.356Z,9.57
2022-10-23T14:17:38.242Z,6.55
2022-10-23T14:20:06.306Z,5.32
2022-10-23T14:22:33.450Z,4.38
2022-10-23T14:25:00.275Z,4.97
2022-10-23T14:27:27.117Z,4.93
2022-10-23T14:29:54.004Z,8.30
2022-10-23T14:32:20.776Z,6.82
2022-10-23T14:34:51.915Z,5.63
2022-10-23T14:37:19.729Z,6.20
2022-10-23T14:39:50.006Z,5.28
2022-10-23T14:42:18.071Z,8.68
2022-10-23T14:44:45.236Z,9.82
2022-10-23T14:47:12.152Z,5.32
2022-10-23T14:49:40.387Z,7.13
2022-10-23T14:52:07.660Z,13.43
2022-10-23T14:54:36.310Z,6.65
2022-10-23T14:57:03.647Z,9.68
2022-10-23T14:59:30.588Z,6.47
2022-10-23T15:01:57.482Z,6.82
2022-10-23T15:04:24.499Z,8.90
2022-10-23T15:06:51.739Z,5.97
2022-10-23T15:09:20.246Z,6.97
2022-10-23T15:11:47.720Z,8.05
2022-10-23T15:14:14.610Z,11.02
2022-10-23T15:16:42.227Z,7.22
2022-10-23T15:19:13.574Z,9.00
2022-10-23T15:21:44.414Z,8.40
2022-10-23T15:24:11.290Z,6.13
2022-10-23T15:26:38.565Z,6.13
2022-10-23T15:29:05.633Z,6.03
2022-10-23T15:31:37.647Z,7.93
2022-10-23T15:34:05.858Z,8.55
2022-10-23T15:36:32.913Z,8.98
2022-10-23T15:38:59.989Z,7.90
2022-10-23T15:41:34.771Z,7.40
2022-10-23T15:44:04.002Z,7.68
2022-10-23T15:46:30.889Z,9.38
2022-10-23T15:48:57.692Z,7.65
2022-10-23T15:51:24.780Z,10.45
2022-10-23T15:53:51.626Z,8.35
2022-10-23T15:56:18.470Z,7.43
2022-10-23T15:58:45.333Z,9.45
2022-10-23T16:01:12.545Z,7.25
2022-10-23T16:03:39.877Z,6.80
2022-10-23T16:06:08.978Z,7.70
2022-10-23T16:08:36.515Z,8.88
2022-10-23T16:11:04.223Z,7.63
2022-10-23T16:13:31.053Z,6.60
2022-10-23T16:15:57.897Z,9.07
2022-10-23T16:18:24.790Z,10.57
2022-10-23T16:20:54.962Z,8.95
2022-10-23T16:23:22.127Z,9.82
2022-10-23T16:25:49.021Z,10.77
2022-10-23T16:28:15.774Z,12.02
2022-10-23T16:30:43.517Z,9.35
2022-10-23T16:33:11.028Z,11.48
2022-10-23T16:35:38.099Z,12.02
2022-10-23T16:38:05.143Z,8.35
2022-10-23T16:40:32.065Z,8.45
2022-10-23T16:42:59.047Z,8.50
2022-10-23T16:45:25.866Z,11.10
2022-10-23T16:47:52.689Z,12.13
2022-10-23T16:50:19.532Z,10.35
2022-10-23T16:52:47.565Z,10.70
2022-10-23T16:55:16.084Z,12.32
2022-10-23T16:57:42.970Z,8.90
2022-10-23T17:00:10.263Z,11.02
2022-10-23T17:02:37.778Z,9.80
2022-10-23T17:05:05.052Z,11.45
2022-10-23T17:07:32.583Z,11.90
2022-10-23T17:09:59.422Z,14.50
2022-10-23T17:12:26.231Z,10.32
2022-10-23T17:14:53.146Z,11.25
2022-10-23T17:17:20.088Z,11.15
2022-10-23T17:19:47.174Z,12.32
2022-10-23T17:22:14.925Z,9.18
2022-10-23T17:24:45.123Z,12.38
2022-10-23T17:27:14.417Z,9.95
2022-10-23T17:29:41.280Z,11.25
2022-10-23T17:32:08.273Z,14.85
2022-10-23T17:34:35.308Z,11.80
2022-10-23T17:37:02.144Z,13.23
2022-10-23T17:39:29.674Z,13.57
2022-10-23T17:41:57.443Z,13.13
2022-10-23T17:44:24.399Z,11.65
2022-10-23T17:46:54.830Z,9.45
2022-10-23T17:49:23.249Z,9.70
2022-10-23T17:51:57.411Z,12.98
2022-10-23T17:54:26.537Z,8.95
2022-10-23T17:56:53.427Z,10.98
2022-10-23T17:59:20.264Z,8.55
2022-10-23T18:01:48.869Z,10.25
2022-10-23T18:04:18.098Z,11.38
2022-10-23T18:06:50.850Z,9.85
2022-10-23T18:09:18.311Z,8.38
2022-10-23T18:11:48.158Z,10.52
2022-10-23T18:14:16.751Z,10.10
2022-10-23T18:16:45.672Z,8.10
2022-10-23T18:19:13.881Z,11.32
2022-10-23T18:21:40.907Z,9.30
2022-10-23T18:24:07.858Z,9.02
2022-10-23T18:26:35.223Z,8.63
2022-10-23T18:29:07.210Z,9.25
2022-10-23T18:31:35.534Z,7.25
2022-10-23T18:34:07.453Z,9.55
2022-10-23T18:36:37.001Z,12.05
2022-10-23T18:39:05.585Z,9.52
2022-10-23T18:41:37.703Z,9.73
2022-10-23T18:44:05.644Z,10.38
2022-10-23T18:46:32.614Z,11.18
2022-10-23T18:48:59.471Z,8.00
2022-10-23T18:51:29.219Z,11.57
2022-10-23T18:53:56.174Z,8.18
2022-10-23T18:56:24.642Z,9.07
2022-10-23T18:58:53.389Z,13.70
2022-10-23T19:01:21.027Z,9.27
2022-10-23T19:03:48.395Z,9.25
2022-10-23T19:06:16.004Z,8.10
2022-10-23T19:08:44.653Z,7.43
2022-10-23T19:11:13.129Z,9.65
2022-10-23T19:13:41.375Z,12.50
2022-10-23T19:16:16.208Z,7.95
2022-10-23T19:18:47.307Z,7.57
2022-10-23T19:21:15.157Z,8.10
2022-10-23T19:23:42.761Z,8.32
2022-10-23T19:26:12.024Z,7.47
2022-10-23T19:28:42.607Z,8.38
2022-10-23T19:31:10.518Z,7.75
2022-10-23T19:33:39.013Z,8.55
2022-10-23T19:36:08.863Z,8.63
2022-10-23T19:38:37.221Z,7.53
2022-10-23T19:41:04.026Z,8.82
2022-10-23T19:43:30.917Z,10.32
2022-10-23T19:46:03.965Z,10.18
2022-10-23T19:48:33.228Z,9.05
2022-10-23T19:51:00.122Z,9.65
2022-10-23T19:53:27.023Z,9.85
2022-10-23T19:56:02.803Z,8.73
2022-10-23T19:58:29.629Z,7.57
2022-10-23T20:00:56.376Z,9.82
2022-10-23T20:03:23.245Z,8.85
2022-10-23T20:05:50.226Z,7.47
2022-10-23T20:08:17.065Z,11.30
2022-10-23T20:10:46.486Z,8.77
2022-10-23T20:13:19.818Z,8.05
2022-10-23T20:15:47.469Z,7.32
2022-10-23T20:18:14.407Z,8.90
2022-10-23T20:20:42.121Z,10.18
2022-10-23T20:23:09.151Z,14.52
2022-10-23T20:25:35.971Z,12.48
2022-10-23T20:28:03.430Z,10.75
2022-10-23T20:30:30.196Z,9.63
2022-10-23T20:32:57.011Z,9.10
2022-10-23T20:35:24.025Z,8.85
2022-10-23T20:37:50.857Z,9.82
2022-10-23T20:40:17.663Z,14.50
2022-10-23T20:42:44.388Z,11.13
2022-10-23T20:45:11.334Z,9.32
2022-10-23T20:47:38.206Z,6.97
2022-10-23T20:50:05.394Z,10.02
2022-10-23T20:54:59.997Z,8.38
2022-10-23T20:57:26.748Z,9.80
2022-10-23T20:59:53.654Z,12.10
2022-10-23T21:02:20.522Z,11.60
2022-10-23T21:04:47.777Z,7.70
2022-10-23T21:07:14.552Z,7.65
2022-10-23T21:09:41.361Z,8.50
2022-10-23T21:12:08.850Z,11.60
2022-10-23T21:14:36.026Z,8.48
2022-10-23T21:17:03.319Z,8.45
2022-10-23T21:19:30.103Z,10.05
2022-10-23T21:21:56.921Z,11.00
2022-10-23T21:24:24.635Z,9.88
2022-10-23T21:26:51.516Z,6.60
2022-10-23T21:29:19.833Z,8.13
2022-10-23T21:31:55.614Z,7.35
2022-10-23T21:34:23.511Z,14.05
2022-10-23T21:39:37.472Z,6.53
2022-10-23T21:42:04.793Z,7.63
2022-10-23T21:44:31.539Z,9.68
2022-10-23T21:46:58.345Z,8.50
2022-10-23T21:49:25.093Z,11.52
2022-10-23T21:51:52.014Z,9.45
2022-10-23T21:54:18.792Z,10.77
2022-10-23T21:56:48.892Z,8.63
2022-10-23T21:59:19.816Z,11.18
2022-10-23T22:01:48.607Z,15.15
2022-10-23T22:04:19.886Z,8.93
2022-10-23T22:06:48.634Z,11.05
2022-10-23T22:09:19.512Z,10.65
2022-10-23T22:11:48.208Z,10.25
2022-10-23T22:14:15.131Z,10.70
2022-10-23T22:16:42.246Z,12.43
2022-10-23T22:19:12.501Z,9.18
2022-10-23T22:21:39.662Z,12.40
2022-10-23T22:24:06.878Z,7.70
2022-10-23T22:26:45.561Z,16.10
2022-10-23T22:29:14.965Z,9.02
2022-10-23T22:31:45.514Z,9.20
2022-10-23T22:34:27.019Z,9.43
2022-10-23T22:37:05.890Z,11.93
2022-10-23T22:39:32.703Z,9.10
2022-10-23T22:41:59.447Z,9.80
2022-10-23T22:44:26.264Z,12.57
2022-10-23T22:46:53.334Z,10.35
2022-10-23T22:49:20.156Z,11.77
2022-10-23T22:51:47.233Z,9.50
2022-10-23T22:54:14.073Z,9.35
2022-10-23T22:56:42.427Z,8.10
2022-10-23T22:59:09.171Z,10.07
2022-10-23T23:01:43.480Z,11.85
2022-10-23T23:04:36.557Z,9.25
2022-10-23T23:06:59.806Z,10.40
2022-10-23T23:09:26.619Z,7.88
2022-10-23T23:11:53.375Z,11.05
2022-10-23T23:14:23.669Z,10.23
2022-10-23T23:16:52.484Z,8.27
2022-10-23T23:19:19.855Z,12.07
2022-10-23T23:21:46.682Z,9.68
2022-10-23T23:24:13.629Z,8.75
2022-10-23T23:26:40.693Z,8.30
2022-10-23T23:29:07.517Z,10.68
2022-10-23T23:31:34.270Z,8.23
2022-10-23T23:34:01.081Z,10.05
2022-10-23T23:36:28.767Z,8.82
2022-10-23T23:38:56.727Z,7.35
2022-10-23T23:41:24.734Z,9.18
2022-10-23T23:43:54.472Z,7.85
2022-10-23T23:46:21.275Z,11.00
2022-10-23T23:48:49.513Z,9.90
2022-10-23T23:51:18.916Z,11.77
2022-10-23T23:53:45.776Z,9.20
2022-10-23T23:56:12.549Z,7.93
2022-10-23T23:58:39.475Z,8.27
